createdAt,value
2018-05-10T00:04:07.492Z,97.80
2018-05-10T00:15:08.122Z,96.44
2018-05-10T00:26:09.281Z,95.73
2018-05-10T00:37:11.658Z,95.83
2018-05-10T00:48:13.220Z,96.39
2018-05-10T00:59:15.711Z,95.28
2018-05-10T01:10:16.839Z,96.15
2018-05-10T01:21:18.666Z,94.87
2018-05-10T01:32:20.467Z,94.93
2018-05-10T01:43:22.247Z,93.77
2018-05-10T01:54:23.373Z,93.83
2018-05-10T02:05:25.142Z,94.23
2018-05-10T02:16:25.842Z,93.83
2018-05-10T02:27:28.072Z,94.94
2018-05-10T02:38:29.508Z,95.14
2018-05-10T02:49:32.139Z,95.55
2018-05-10T03:00:34.177Z,94.64
2018-05-10T03:11:35.844Z,95.95
2018-05-10T03:22:37.463Z,95.86
2018-05-10T03:33:39.756Z,96.81
2018-05-10T03:44:41.746Z,97.52
2018-05-10T03:55:44.173Z,98.07
2018-05-10T04:06:46.418Z,98.18
2018-05-10T04:17:48.126Z,98.13
2018-05-10T04:28:51.777Z,97.78
2018-05-10T04:39:53.415Z,95.56
2018-05-10T04:50:54.321Z,93.65
2018-05-10T05:01:54.777Z,93.41
2018-05-10T05:12:56.933Z,90.70
2018-05-10T05:23:58.577Z,89.59
2018-05-10T05:35:00.251Z,85.42
2018-05-10T05:46:00.273Z,88.50
2018-05-10T05:57:00.693Z,89.01
2018-05-10T06:07:58.956Z,88.50
2018-05-10T06:19:01.054Z,86.61
2018-05-10T06:30:01.047Z,83.97
2018-05-10T06:41:01.360Z,81.78
2018-05-10T06:51:55.837Z,78.75
2018-05-10T07:02:54.387Z,74.51
2018-05-10T07:13:54.929Z,75.93
2018-05-10T07:24:54.471Z,72.46
2018-05-10T07:35:54.094Z,73.33
2018-05-10T07:46:53.747Z,71.16
2018-05-10T07:57:51.740Z,69.09
2018-05-10T08:08:52.853Z,66.86
2018-05-10T08:19:54.959Z,68.10
2018-05-10T08:30:55.557Z,68.96
2018-05-10T08:41:58.529Z,66.53
2018-05-10T08:52:40.386Z,69.53
2018-05-10T09:03:21.388Z,65.29
2018-05-10T09:14:04.509Z,65.76
2018-05-10T09:24:41.835Z,67.86
2018-05-10T09:35:25.191Z,62.93
2018-05-10T09:46:09.087Z,62.87
2018-05-10T09:56:46.058Z,63.28
2018-05-10T10:07:29.348Z,61.22
2018-05-10T10:18:12.226Z,60.79
2018-05-10T10:28:54.380Z,62.65
2018-05-10T10:39:37.829Z,61.36
2018-05-10T10:50:20.935Z,57.94
2018-05-10T11:01:05.406Z,65.06
2018-05-10T11:11:48.878Z,56.07
2018-05-10T11:22:33.660Z,54.97
2018-05-10T11:33:16.674Z,51.75
2018-05-10T11:44:00.709Z,49.20
2018-05-10T11:54:42.618Z,54.82
2018-05-10T12:05:21.987Z,57.59
2018-05-10T12:16:04.981Z,59.36
2018-05-10T12:26:43.588Z,61.19
2018-05-10T12:37:30.911Z,60.48
2018-05-10T12:48:09.380Z,60.89
2018-05-10T12:58:56.334Z,54.53
2018-05-10T13:09:42.047Z,50.93
2018-05-10T13:20:28.488Z,50.07
2018-05-10T13:31:09.444Z,58.53
2018-05-10T13:41:51.124Z,55.48
2018-05-10T13:52:35.181Z,53.81
2018-05-10T14:03:21.381Z,48.03
2018-05-10T14:14:02.134Z,50.88
2018-05-10T14:24:44.653Z,57.45
2018-05-10T14:35:22.859Z,60.80
2018-05-10T14:46:05.891Z,59.49
2018-05-10T14:56:51.924Z,64.62
2018-05-10T15:07:34.553Z,58.78
2018-05-10T15:18:15.805Z,67.57
2018-05-10T15:29:16.928Z,65.99
2018-05-10T15:40:16.106Z,66.74
2018-05-10T15:50:57.157Z,61.94
2018-05-10T16:01:39.814Z,65.47
2018-05-10T16:12:22.864Z,69.29
2018-05-10T16:23:23.631Z,66.51
2018-05-10T16:34:24.111Z,72.87
2018-05-10T16:45:25.573Z,69.56
2018-05-10T16:56:06.134Z,67.66
2018-05-10T17:07:08.248Z,70.82
2018-05-10T17:18:08.817Z,70.95
2018-05-10T17:29:09.811Z,69.92
2018-05-10T17:40:08.660Z,71.75
2018-05-10T17:51:09.126Z,74.21
2018-05-10T18:02:10.268Z,76.04
2018-05-10T18:13:05.427Z,75.72
2018-05-10T18:24:05.128Z,76.32
2018-05-10T18:35:02.621Z,75.76
2018-05-10T18:45:54.487Z,74.55
2018-05-10T18:56:52.711Z,74.89
2018-05-10T19:07:51.698Z,78.47
2018-05-10T19:18:52.193Z,78.97
2018-05-10T19:29:50.665Z,82.71
2018-05-10T19:40:50.110Z,81.24
2018-05-10T19:51:48.984Z,80.00
2018-05-10T20:02:48.952Z,80.94
2018-05-10T20:13:50.448Z,79.64
2018-05-10T20:24:47.781Z,83.19
2018-05-10T20:35:47.025Z,82.03
2018-05-10T20:46:46.484Z,85.24
2018-05-10T20:57:45.238Z,88.09
2018-05-10T21:08:45.372Z,92.58
2018-05-10T21:19:46.344Z,93.33
2018-05-10T21:30:47.456Z,97.85
2018-05-10T21:41:47.433Z,99.60
2018-05-10T21:52:47.726Z,99.99
2018-05-10T22:03:46.951Z,99.99
2018-05-10T22:14:44.515Z,99.99
2018-05-10T22:25:45.300Z,99.99
2018-05-10T22:36:43.065Z,99.99
2018-05-10T22:47:43.846Z,99.99
2018-05-10T22:58:45.609Z,96.83
2018-05-10T23:09:47.796Z,99.99
2018-05-10T23:20:49.572Z,99.99
2018-05-10T23:31:50.146Z,99.99
2018-05-10T23:42:51.485Z,99.99
2018-05-10T23:53:52.870Z,99.99
